createdAt,value
2023-02-03T00:03:19.277Z,4.25
2023-02-03T00:07:21.331Z,5.20
2023-02-03T00:11:23.573Z,4.85
2023-02-03T00:15:25.619Z,4.90
2023-02-03T00:19:27.621Z,2.55
2023-02-03T00:23:31.978Z,3.53
2023-02-03T00:27:34.036Z,3.17
2023-02-03T00:31:36.383Z,2.47
2023-02-03T00:35:40.079Z,4.20
2023-02-03T00:39:42.152Z,3.00
2023-02-03T00:43:44.413Z,3.63
2023-02-03T00:47:46.487Z,1.83
2023-02-03T00:51:48.835Z,3.63
2023-02-03T00:55:52.016Z,2.92
2023-02-03T00:59:54.857Z,2.58
2023-02-03T01:03:57.038Z,2.58
2023-02-03T01:08:00.893Z,2.85
2023-02-03T01:12:03.981Z,1.40
2023-02-03T01:16:17.672Z,2.58
2023-02-03T01:20:21.471Z,2.83
2023-02-03T01:24:23.468Z,2.00
2023-02-03T01:28:25.503Z,2.95
2023-02-03T01:32:27.931Z,1.52
2023-02-03T01:36:31.943Z,1.55
2023-02-03T01:40:33.963Z,1.95
2023-02-03T01:44:38.863Z,2.45
2023-02-03T01:48:41.478Z,4.25
2023-02-03T01:52:46.951Z,2.55
2023-02-03T01:56:55.280Z,3.45
2023-02-03T02:00:58.717Z,2.83
2023-02-03T02:05:27.572Z,3.35
2023-02-03T02:09:29.585Z,3.38
2023-02-03T02:13:34.999Z,1.95
2023-02-03T02:18:23.323Z,4.72
2023-02-03T02:22:53.163Z,2.47
2023-02-03T02:27:07.889Z,4.07
2023-02-03T02:31:28.809Z,2.78
2023-02-03T02:35:47.521Z,4.35
2023-02-03T02:40:10.864Z,4.18
2023-02-03T02:44:21.536Z,2.67
2023-02-03T02:48:38.159Z,1.58
2023-02-03T02:52:43.721Z,4.28
2023-02-03T02:56:50.618Z,3.83
2023-02-03T03:00:52.719Z,1.80
2023-02-03T03:04:55.045Z,3.85
2023-02-03T03:09:06.175Z,3.70
2023-02-03T03:13:13.902Z,3.50
2023-02-03T03:17:25.004Z,1.67
2023-02-03T03:21:36.115Z,2.60
2023-02-03T03:25:46.028Z,2.95
2023-02-03T03:30:09.227Z,2.95
2023-02-03T03:34:13.244Z,4.88
2023-02-03T03:38:39.445Z,5.32
2023-02-03T03:42:55.109Z,4.43
2023-02-03T03:47:23.200Z,4.90
2023-02-03T03:51:40.579Z,3.65
2023-02-03T03:55:47.140Z,1.85
2023-02-03T03:59:50.592Z,2.13
2023-02-03T04:04:02.051Z,2.50
2023-02-03T04:08:04.351Z,1.83
2023-02-03T04:12:16.362Z,1.73
2023-02-03T04:16:18.445Z,0.98
2023-02-03T04:20:20.873Z,1.55
2023-02-03T04:24:22.951Z,1.58
2023-02-03T04:28:25.132Z,2.30
2023-02-03T04:32:27.579Z,2.35
2023-02-03T04:36:29.835Z,3.65
2023-02-03T04:40:34.682Z,1.55
2023-02-03T04:44:37.014Z,2.55
2023-02-03T04:48:39.180Z,2.00
2023-02-03T04:52:41.282Z,1.80
2023-02-03T04:56:43.289Z,2.17
2023-02-03T05:00:45.306Z,2.08
2023-02-03T05:04:47.353Z,1.98
2023-02-03T05:08:49.368Z,2.58
2023-02-03T05:12:51.418Z,2.38
2023-02-03T05:16:53.508Z,0.98
2023-02-03T05:20:55.605Z,3.83
2023-02-03T05:24:57.593Z,1.52
2023-02-03T05:28:59.577Z,3.97
2023-02-03T05:33:01.619Z,1.38
2023-02-03T05:37:03.905Z,2.45
2023-02-03T05:41:29.064Z,2.47
2023-02-03T05:45:31.659Z,2.78
2023-02-03T05:49:33.745Z,1.90
2023-02-03T05:53:35.764Z,2.80
2023-02-03T05:57:37.766Z,2.65
2023-02-03T06:01:40.049Z,1.90
2023-02-03T06:05:43.492Z,4.20
2023-02-03T06:09:45.487Z,1.85
2023-02-03T06:13:47.560Z,1.83
2023-02-03T06:17:50.008Z,2.55
2023-02-03T06:21:51.993Z,1.65
2023-02-03T06:25:54.032Z,2.20
2023-02-03T06:29:56.132Z,1.27
2023-02-03T06:33:59.483Z,0.98
2023-02-03T06:38:02.186Z,2.55
2023-02-03T06:42:04.255Z,2.70
2023-02-03T06:46:06.409Z,2.33
2023-02-03T06:50:10.614Z,2.35
2023-02-03T06:54:14.090Z,1.55
2023-02-03T06:58:16.163Z,3.05
2023-02-03T07:02:18.188Z,2.60
2023-02-03T07:06:20.186Z,1.85
2023-02-03T07:10:22.254Z,2.80
2023-02-03T07:14:24.292Z,2.40
2023-02-03T07:22:53.268Z,2.42
2023-02-03T07:26:55.277Z,1.95
2023-02-03T07:30:57.550Z,1.65
2023-02-03T07:35:01.236Z,1.77
2023-02-03T07:39:03.590Z,2.72
2023-02-03T07:43:05.598Z,2.75
2023-02-03T07:47:07.647Z,1.95
2023-02-03T07:51:09.681Z,3.65
2023-02-03T07:55:11.698Z,1.42
2023-02-03T07:59:13.692Z,2.30
2023-02-03T08:03:15.729Z,1.98
2023-02-03T08:07:17.794Z,2.35
2023-02-03T08:11:19.822Z,1.30
2023-02-03T08:15:22.231Z,3.55
2023-02-03T08:19:24.410Z,1.75
2023-02-03T08:23:26.374Z,2.42
2023-02-03T08:27:28.465Z,3.47
2023-02-03T08:31:31.613Z,1.80
2023-02-03T08:35:33.867Z,5.22
2023-02-03T08:39:36.254Z,2.30
2023-02-03T08:43:39.220Z,1.15
2023-02-03T08:47:41.303Z,1.00
2023-02-03T08:51:47.735Z,1.65
2023-02-03T08:55:49.874Z,1.83
2023-02-03T08:59:51.890Z,1.83
2023-02-03T09:03:54.529Z,3.47
2023-02-03T09:07:56.857Z,2.22
2023-02-03T09:12:02.367Z,2.25
2023-02-03T09:16:07.265Z,1.95
2023-02-03T09:20:10.376Z,3.30
2023-02-03T09:24:12.427Z,3.00
2023-02-03T09:28:14.470Z,2.25
2023-02-03T09:32:16.572Z,3.00
2023-02-03T09:36:18.672Z,3.42
2023-02-03T09:40:27.332Z,2.25
2023-02-03T09:44:46.681Z,1.55
2023-02-03T09:48:54.279Z,1.30
2023-02-03T09:52:58.676Z,3.08
2023-02-03T09:57:04.266Z,2.15
2023-02-03T10:01:13.293Z,2.70
2023-02-03T10:05:40.038Z,3.88
2023-02-03T10:09:54.881Z,1.48
2023-02-03T10:14:25.416Z,2.65
2023-02-03T10:18:33.449Z,2.97
2023-02-03T10:22:45.762Z,1.52
2023-02-03T10:26:48.685Z,1.55
2023-02-03T10:30:56.915Z,3.35
2023-02-03T10:35:01.832Z,4.10
2023-02-03T10:39:19.896Z,1.63
2023-02-03T10:43:40.515Z,2.05
2023-02-03T10:47:48.458Z,2.65
2023-02-03T10:51:52.990Z,2.40
2023-02-03T10:56:10.397Z,2.60
2023-02-03T11:00:24.175Z,1.35
2023-02-03T11:04:31.739Z,1.45
2023-02-03T11:08:35.812Z,1.50
2023-02-03T11:12:37.845Z,1.52
2023-02-03T11:16:42.694Z,1.92
2023-02-03T11:20:46.192Z,4.10
2023-02-03T11:24:48.234Z,1.15
2023-02-03T11:28:52.779Z,1.20
2023-02-03T11:32:54.874Z,1.50
2023-02-03T11:36:57.138Z,1.65
2023-02-03T11:41:03.169Z,0.63
2023-02-03T11:45:24.191Z,2.10
2023-02-03T11:49:34.548Z,2.00
2023-02-03T11:54:02.833Z,2.45
2023-02-03T11:58:19.387Z,1.08
2023-02-03T12:02:51.998Z,0.40
2023-02-03T12:07:01.084Z,1.52
2023-02-03T12:11:39.051Z,2.28
2023-02-03T12:16:10.273Z,1.48
2023-02-03T12:20:25.634Z,0.40
2023-02-03T12:24:46.500Z,1.20
2023-02-03T12:29:13.121Z,1.58
2023-02-03T12:33:46.214Z,4.38
2023-02-03T12:38:06.819Z,1.13
2023-02-03T12:42:27.683Z,5.00
2023-02-03T12:46:36.134Z,2.80
2023-02-03T12:50:54.023Z,1.70
2023-02-03T12:55:03.220Z,1.20
2023-02-03T12:59:13.928Z,6.55
2023-02-03T13:03:34.906Z,4.28
2023-02-03T13:07:46.170Z,4.30
2023-02-03T13:12:08.874Z,2.00
2023-02-03T13:16:13.657Z,3.67
2023-02-03T13:20:20.781Z,0.90
2023-02-03T13:24:27.894Z,4.57
2023-02-03T13:28:44.356Z,1.60
2023-02-03T13:32:58.696Z,4.28
2023-02-03T13:37:19.445Z,2.42
2023-02-03T13:41:42.620Z,1.83
2023-02-03T13:45:51.128Z,0.50
2023-02-03T13:49:59.710Z,1.67
2023-02-03T13:54:16.129Z,3.40
2023-02-03T13:58:39.362Z,0.98
2023-02-03T14:02:53.281Z,1.33
2023-02-03T14:06:58.633Z,2.08
2023-02-03T14:11:36.220Z,1.83
2023-02-03T14:15:39.550Z,4.40
2023-02-03T14:19:50.581Z,3.88
2023-02-03T14:23:59.332Z,2.03
2023-02-03T14:28:06.434Z,3.72
2023-02-03T14:32:12.972Z,3.28
2023-02-03T14:36:30.874Z,2.50
2023-02-03T14:40:45.115Z,3.95
2023-02-03T14:45:06.066Z,4.45
2023-02-03T14:49:20.651Z,3.60
2023-02-03T14:53:40.443Z,3.22
2023-02-03T14:57:51.003Z,3.72
2023-02-03T15:01:53.389Z,6.13
2023-02-03T15:06:05.247Z,3.60
2023-02-03T15:10:18.442Z,5.07
2023-02-03T15:14:23.421Z,5.68
2023-02-03T15:18:32.524Z,3.30
2023-02-03T15:22:38.096Z,5.30
2023-02-03T15:26:46.172Z,4.43
2023-02-03T15:31:14.224Z,4.28
2023-02-03T15:35:19.487Z,4.55
2023-02-03T15:39:48.963Z,4.15
2023-02-03T15:43:58.682Z,4.82
2023-02-03T15:48:31.414Z,5.68
2023-02-03T15:52:39.162Z,4.88
2023-02-03T15:56:56.941Z,5.40
2023-02-03T16:01:03.641Z,4.32
2023-02-03T16:05:13.759Z,5.95
2023-02-03T16:09:34.998Z,7.25
2023-02-03T16:13:43.077Z,7.03
2023-02-03T16:17:45.144Z,6.97
2023-02-03T16:21:50.135Z,5.75
2023-02-03T16:26:20.814Z,8.00
2023-02-03T16:30:43.231Z,8.30
2023-02-03T16:35:04.540Z,8.10
2023-02-03T16:39:29.857Z,7.35
2023-02-03T16:43:50.198Z,6.95
2023-02-03T16:48:11.042Z,7.75
2023-02-03T16:52:13.051Z,7.25
2023-02-03T16:56:17.764Z,6.05
2023-02-03T17:00:23.267Z,8.93
2023-02-03T17:04:25.286Z,8.25
2023-02-03T17:08:27.310Z,7.53
2023-02-03T17:12:31.324Z,6.68
2023-02-03T17:16:33.483Z,9.68
2023-02-03T17:20:36.786Z,7.35
2023-02-03T17:24:38.886Z,7.38
2023-02-03T17:28:43.119Z,6.93
2023-02-03T17:32:45.208Z,7.55
2023-02-03T17:36:47.258Z,11.77
2023-02-03T17:53:49.265Z,10.38
2023-02-03T17:57:51.570Z,11.63
2023-02-03T18:01:53.600Z,8.75
2023-02-03T18:05:55.590Z,13.00
2023-02-03T18:09:57.603Z,11.68
2023-02-03T18:14:00.611Z,11.48
2023-02-03T18:18:02.616Z,11.98
2023-02-03T18:22:04.694Z,11.35
2023-02-03T18:26:08.792Z,13.90
2023-02-03T18:30:11.900Z,12.13
2023-02-03T18:34:15.742Z,16.08
2023-02-03T18:38:17.748Z,15.40
2023-02-03T18:42:20.636Z,11.55
2023-02-03T18:46:25.983Z,9.55
2023-02-03T18:50:28.576Z,11.68
2023-02-03T18:54:30.866Z,13.77
2023-02-03T18:58:32.878Z,14.50
2023-02-03T19:02:35.027Z,13.20
2023-02-03T19:06:37.194Z,9.82
2023-02-03T19:10:39.203Z,10.27
2023-02-03T19:14:41.263Z,12.57
2023-02-03T19:18:46.753Z,14.20
2023-02-03T19:22:48.914Z,20.77
2023-02-03T19:26:50.881Z,14.55
2023-02-03T19:30:57.485Z,14.07
2023-02-03T19:35:01.889Z,16.45
2023-02-03T19:39:03.948Z,15.13
2023-02-03T19:43:06.001Z,13.38
2023-02-03T19:47:08.120Z,14.50
2023-02-03T19:51:12.019Z,10.10
2023-02-03T19:55:14.571Z,18.20
2023-02-03T19:59:16.633Z,15.75
2023-02-03T20:03:19.634Z,14.55
2023-02-03T20:07:23.146Z,11.38
2023-02-03T20:11:25.220Z,14.80
2023-02-03T20:15:27.286Z,14.23
2023-02-03T20:19:29.307Z,17.45
2023-02-03T20:23:31.926Z,14.32
2023-02-03T20:27:33.944Z,11.38
2023-02-03T20:31:36.432Z,21.58
2023-02-03T20:35:38.752Z,19.42
2023-02-03T20:39:41.033Z,13.90
2023-02-03T20:43:43.037Z,13.07
2023-02-03T20:47:45.657Z,12.15
2023-02-03T20:51:47.757Z,12.25
2023-02-03T20:55:50.861Z,14.60
2023-02-03T20:59:52.861Z,10.57
2023-02-03T21:04:13.540Z,10.50
2023-02-03T21:08:20.224Z,11.80
2023-02-03T21:12:22.288Z,11.93
2023-02-03T21:16:32.574Z,17.05
2023-02-03T21:20:34.607Z,11.40
2023-02-03T21:24:37.834Z,17.05
2023-02-03T21:28:39.887Z,16.33
2023-02-03T21:32:41.874Z,17.60
2023-02-03T21:36:43.867Z,14.93
2023-02-03T21:40:45.851Z,16.15
2023-02-03T21:44:48.014Z,13.40
2023-02-03T21:48:52.226Z,14.50
2023-02-03T21:52:54.251Z,15.43
2023-02-03T21:56:58.137Z,12.57
2023-02-03T22:01:03.594Z,17.83
2023-02-03T22:05:12.464Z,10.98
2023-02-03T22:09:17.066Z,13.77
2023-02-03T22:13:20.080Z,13.85
2023-02-03T22:17:22.074Z,14.48
2023-02-03T22:21:24.480Z,15.23
2023-02-03T22:25:26.791Z,13.05
2023-02-03T22:29:28.812Z,13.45
2023-02-03T22:33:31.928Z,14.27
2023-02-03T22:37:33.978Z,16.20
2023-02-03T22:41:35.955Z,18.65
2023-02-03T22:45:38.004Z,13.20
2023-02-03T22:49:40.066Z,14.35
2023-02-03T22:53:42.149Z,15.35
2023-02-03T22:57:44.127Z,13.02
2023-02-03T23:01:46.148Z,14.90
2023-02-03T23:05:48.182Z,12.10
2023-02-03T23:09:50.175Z,13.13
2023-02-03T23:13:52.203Z,11.55
2023-02-03T23:17:54.316Z,10.98
2023-02-03T23:21:56.311Z,12.10
2023-02-03T23:25:58.317Z,8.90
2023-02-03T23:30:00.334Z,14.52
2023-02-03T23:34:21.024Z,11.90
2023-02-03T23:38:23.057Z,9.50
2023-02-03T23:42:25.057Z,16.23
2023-02-03T23:46:27.144Z,12.75
2023-02-03T23:50:29.586Z,12.07
2023-02-03T23:54:31.789Z,15.15
2023-02-03T23:58:33.818Z,9.77
